Flugplatz Hetzleser Berg

Für EDQX sind keine METAR/TAF Berichte vorhanden.
Es werden die Flugwettermeldungen vom Flugplatz Nuremberg in 17 km Entfernung angezeigt.

Bericht für EDDN

vom 07.03. um 01:20 UTC

Wind 3 kt aus 120°

Sichtweite 2000 m

Temperatur -5.0°C

Taupunkt -8.0°C

Luftfeuchtigkeit 79%

Luftdruck 1027 hPa

EDDN 070120Z AUTO 12003KT //// R10/P2000N // ///////// M05/M08 Q1027

Prognose für EDDN

vom 06.03. um 23:00 UTC

Zwischen 00:00 UTC und 08:00 UTC

Wind 2 kt aus 100°

Sichtweite 10 km oder mehr

keine signifikanten Wettererscheinungen

keine Wolken


Zwischen 08:00 und 10:00 UTC übergehend zu

Wind 5 kt aus 300°

Sichtweite 10 km oder mehr

keine signifikanten Wettererscheinungen

keine Wolken


Zwischen 18:00 und 20:00 UTC übergehend zu

Wind 2 kt aus 100°

Sichtweite 10 km oder mehr

keine signifikanten Wettererscheinungen

keine Wolken

TAF EDDN 062300Z 0700/0724 10002KT CAVOK BECMG 0708/0710 30005KT BECMG 0718/0720 10002KT
Impressum